sensor_id;sensor_type;location;lat;lon;timestamp;pressure;altitude;pressure_sealevel;temperature
62930;BMP280;49036;42.782;23.108;2023-08-06T00:01:29;92959.91;;;15.36
62930;BMP280;49036;42.782;23.108;2023-08-06T00:03:54;92950.09;;;15.35
62930;BMP280;49036;42.782;23.108;2023-08-06T00:06:20;92949.72;;;15.44
62930;BMP280;49036;42.782;23.108;2023-08-06T00:08:45;92954.13;;;15.51
62930;BMP280;49036;42.782;23.108;2023-08-06T00:11:11;92938.16;;;15.54
62930;BMP280;49036;42.782;23.108;2023-08-06T00:13:38;92950.69;;;15.53
62930;BMP280;49036;42.782;23.108;2023-08-06T00:16:13;92969.34;;;15.46
62930;BMP280;49036;42.782;23.108;2023-08-06T00:18:39;92963.81;;;15.48
62930;BMP280;49036;42.782;23.108;2023-08-06T00:21:04;92948.41;;;15.47
62930;BMP280;49036;42.782;23.108;2023-08-06T00:23:30;92945.91;;;15.36
62930;BMP280;49036;42.782;23.108;2023-08-06T00:25:55;92937.19;;;15.25
62930;BMP280;49036;42.782;23.108;2023-08-06T00:28:21;92932.19;;;15.22
62930;BMP280;49036;42.782;23.108;2023-08-06T00:30:51;92927.31;;;15.22
62930;BMP280;49036;42.782;23.108;2023-08-06T00:33:17;92925.91;;;15.21
62930;BMP280;49036;42.782;23.108;2023-08-06T00:35:42;92930.16;;;15.24
62930;BMP280;49036;42.782;23.108;2023-08-06T00:38:08;92926.16;;;15.29
62930;BMP280;49036;42.782;23.108;2023-08-06T00:40:33;92920.41;;;15.25
62930;BMP280;49036;42.782;23.108;2023-08-06T00:42:59;92917.06;;;15.29
62930;BMP280;49036;42.782;23.108;2023-08-06T00:45:24;92920.56;;;15.29
62930;BMP280;49036;42.782;23.108;2023-08-06T00:47:50;92928.44;;;15.35
62930;BMP280;49036;42.782;23.108;2023-08-06T00:50:16;92939.78;;;15.39
62930;BMP280;49036;42.782;23.108;2023-08-06T00:52:41;92944.69;;;15.41
62930;BMP280;49036;42.782;23.108;2023-08-06T00:55:07;92936.78;;;15.55
62930;BMP280;49036;42.782;23.108;2023-08-06T00:57:33;92912.06;;;15.69
62930;BMP280;49036;42.782;23.108;2023-08-06T00:59:59;92907.94;;;15.72
62930;BMP280;49036;42.782;23.108;2023-08-06T01:02:25;92911.13;;;15.62
62930;BMP280;49036;42.782;23.108;2023-08-06T01:04:50;92909.78;;;15.63
62930;BMP280;49036;42.782;23.108;2023-08-06T01:12:25;92893.19;;;15.70
62930;BMP280;49036;42.782;23.108;2023-08-06T01:17:25;92895.59;;;15.79
62930;BMP280;49036;42.782;23.108;2023-08-06T01:20:08;92879.34;;;15.74
62930;BMP280;49036;42.782;23.108;2023-08-06T01:22:34;92886.28;;;15.73
62930;BMP280;49036;42.782;23.108;2023-08-06T01:24:59;92898.19;;;15.73
62930;BMP280;49036;42.782;23.108;2023-08-06T01:30:08;92901.91;;;15.80
62930;BMP280;49036;42.782;23.108;2023-08-06T01:32:38;92896.91;;;15.76
62930;BMP280;49036;42.782;23.108;2023-08-06T01:35:06;92907.31;;;15.74
62930;BMP280;49036;42.782;23.108;2023-08-06T01:37:32;92903.66;;;15.69
62930;BMP280;49036;42.782;23.108;2023-08-06T01:39:58;92897.97;;;15.65
62930;BMP280;49036;42.782;23.108;2023-08-06T01:42:23;92899.56;;;15.72
62930;BMP280;49036;42.782;23.108;2023-08-06T01:44:49;92891.81;;;15.71
62930;BMP280;49036;42.782;23.108;2023-08-06T01:47:14;92874.38;;;15.72
62930;BMP280;49036;42.782;23.108;2023-08-06T01:49:39;92873.09;;;15.75
62930;BMP280;49036;42.782;23.108;2023-08-06T01:52:05;92868.00;;;15.91
62930;BMP280;49036;42.782;23.108;2023-08-06T01:54:31;92877.16;;;15.94
62930;BMP280;49036;42.782;23.108;2023-08-06T01:56:56;92862.44;;;15.93
62930;BMP280;49036;42.782;23.108;2023-08-06T01:59:24;92850.50;;;15.91
62930;BMP280;49036;42.782;23.108;2023-08-06T02:01:49;92867.28;;;15.91
62930;BMP280;49036;42.782;23.108;2023-08-06T02:04:14;92865.06;;;15.87
62930;BMP280;49036;42.782;23.108;2023-08-06T02:06:40;92862.78;;;15.82
62930;BMP280;49036;42.782;23.108;2023-08-06T02:09:05;92858.69;;;15.85
62930;BMP280;49036;42.782;23.108;2023-08-06T02:11:31;92845.25;;;15.79
62930;BMP280;49036;42.782;23.108;2023-08-06T02:13:56;92869.00;;;15.78
62930;BMP280;49036;42.782;23.108;2023-08-06T02:16:22;92865.41;;;15.76
62930;BMP280;49036;42.782;23.108;2023-08-06T02:18:47;92851.56;;;15.80
62930;BMP280;49036;42.782;23.108;2023-08-06T02:21:13;92832.00;;;15.82
62930;BMP280;49036;42.782;23.108;2023-08-06T02:23:38;92828.75;;;15.89
62930;BMP280;49036;42.782;23.108;2023-08-06T02:26:04;92843.63;;;15.96
62930;BMP280;49036;42.782;23.108;2023-08-06T02:28:30;92875.72;;;15.93
62930;BMP280;49036;42.782;23.108;2023-08-06T02:30:56;92885.41;;;15.90
62930;BMP280;49036;42.782;23.108;2023-08-06T02:33:22;92889.06;;;15.94
62930;BMP280;49036;42.782;23.108;2023-08-06T02:35:47;92900.25;;;15.94
62930;BMP280;49036;42.782;23.108;2023-08-06T02:38:13;92894.06;;;15.98
62930;BMP280;49036;42.782;23.108;2023-08-06T02:40:47;92875.25;;;16.01
62930;BMP280;49036;42.782;23.108;2023-08-06T02:43:13;92862.50;;;15.95
62930;BMP280;49036;42.782;23.108;2023-08-06T02:45:39;92877.00;;;15.90
62930;BMP280;49036;42.782;23.108;2023-08-06T02:48:04;92882.81;;;15.96
62930;BMP280;49036;42.782;23.108;2023-08-06T02:50:30;92887.81;;;16.00
62930;BMP280;49036;42.782;23.108;2023-08-06T02:52:56;92879.41;;;16.00
62930;BMP280;49036;42.782;23.108;2023-08-06T02:55:21;92877.97;;;15.98
62930;BMP280;49036;42.782;23.108;2023-08-06T02:57:47;92867.44;;;15.97
62930;BMP280;49036;42.782;23.108;2023-08-06T03:00:12;92880.97;;;16.05
62930;BMP280;49036;42.782;23.108;2023-08-06T03:02:38;92888.13;;;16.10
62930;BMP280;49036;42.782;23.108;2023-08-06T03:05:03;92889.59;;;16.13
62930;BMP280;49036;42.782;23.108;2023-08-06T03:07:29;92881.25;;;16.15
62930;BMP280;49036;42.782;23.108;2023-08-06T03:09:55;92863.66;;;16.10
62930;BMP280;49036;42.782;23.108;2023-08-06T03:12:20;92846.22;;;16.14
62930;BMP280;49036;42.782;23.108;2023-08-06T03:14:46;92840.63;;;16.14
62930;BMP280;49036;42.782;23.108;2023-08-06T03:17:11;92847.47;;;16.09
62930;BMP280;49036;42.782;23.108;2023-08-06T03:19:37;92848.09;;;16.05
62930;BMP280;49036;42.782;23.108;2023-08-06T03:22:02;92845.19;;;16.01
62930;BMP280;49036;42.782;23.108;2023-08-06T03:24:28;92837.97;;;15.94
62930;BMP280;49036;42.782;23.108;2023-08-06T03:26:53;92840.38;;;15.80
62930;BMP280;49036;42.782;23.108;2023-08-06T03:29:19;92861.84;;;15.73
62930;BMP280;49036;42.782;23.108;2023-08-06T03:31:46;92858.31;;;15.73
62930;BMP280;49036;42.782;23.108;2023-08-06T03:34:11;92838.22;;;15.78
62930;BMP280;49036;42.782;23.108;2023-08-06T03:36:37;92847.94;;;15.77
62930;BMP280;49036;42.782;23.108;2023-08-06T03:39:02;92843.03;;;15.76
62930;BMP280;49036;42.782;23.108;2023-08-06T03:41:28;92845.78;;;15.74
62930;BMP280;49036;42.782;23.108;2023-08-06T03:43:53;92852.13;;;15.76
62930;BMP280;49036;42.782;23.108;2023-08-06T03:46:19;92857.03;;;15.76
62930;BMP280;49036;42.782;23.108;2023-08-06T03:48:44;92849.28;;;15.74
62930;BMP280;49036;42.782;23.108;2023-08-06T03:51:10;92856.53;;;15.83
62930;BMP280;49036;42.782;23.108;2023-08-06T03:53:35;92856.53;;;15.83
62930;BMP280;49036;42.782;23.108;2023-08-06T03:56:01;92864.91;;;15.83
62930;BMP280;49036;42.782;23.108;2023-08-06T03:58:27;92862.22;;;15.85
62930;BMP280;49036;42.782;23.108;2023-08-06T04:01:02;92873.31;;;15.83
62930;BMP280;49036;42.782;23.108;2023-08-06T04:03:28;92876.06;;;15.81
62930;BMP280;49036;42.782;23.108;2023-08-06T04:05:54;92884.50;;;15.83
62930;BMP280;49036;42.782;23.108;2023-08-06T04:08:19;92877.63;;;15.86
62930;BMP280;49036;42.782;23.108;2023-08-06T04:10:45;92888.34;;;15.94
62930;BMP280;49036;42.782;23.108;2023-08-06T04:13:10;92886.44;;;16.01
62930;BMP280;49036;42.782;23.108;2023-08-06T04:15:39;92896.25;;;16.02
62930;BMP280;49036;42.782;23.108;2023-08-06T04:18:04;92898.56;;;16.09
62930;BMP280;49036;42.782;23.108;2023-08-06T04:20:30;92903.72;;;16.17
62930;BMP280;49036;42.782;23.108;2023-08-06T04:22:55;92903.00;;;16.16
62930;BMP280;49036;42.782;23.108;2023-08-06T04:25:21;92900.34;;;16.22
62930;BMP280;49036;42.782;23.108;2023-08-06T04:27:47;92898.47;;;16.29
62930;BMP280;49036;42.782;23.108;2023-08-06T04:30:13;92894.38;;;16.34
62930;BMP280;49036;42.782;23.108;2023-08-06T04:32:39;92887.50;;;16.37
62930;BMP280;49036;42.782;23.108;2023-08-06T04:35:05;92887.00;;;16.45
62930;BMP280;49036;42.782;23.108;2023-08-06T04:37:30;92883.66;;;16.50
62930;BMP280;49036;42.782;23.108;2023-08-06T04:39:56;92882.31;;;16.53
62930;BMP280;49036;42.782;23.108;2023-08-06T04:42:21;92876.72;;;16.53
62930;BMP280;49036;42.782;23.108;2023-08-06T04:44:47;92874.59;;;16.52
62930;BMP280;49036;42.782;23.108;2023-08-06T04:47:12;92878.91;;;16.55
62930;BMP280;49036;42.782;23.108;2023-08-06T04:49:38;92880.97;;;16.54
62930;BMP280;49036;42.782;23.108;2023-08-06T04:52:04;92881.19;;;16.62
62930;BMP280;49036;42.782;23.108;2023-08-06T04:54:29;92877.63;;;16.60
62930;BMP280;49036;42.782;23.108;2023-08-06T04:56:55;92879.88;;;16.65
62930;BMP280;49036;42.782;23.108;2023-08-06T04:59:20;92873.03;;;16.73
62930;BMP280;49036;42.782;23.108;2023-08-06T05:01:46;92863.38;;;16.78
62930;BMP280;49036;42.782;23.108;2023-08-06T05:04:11;92858.75;;;16.88
62930;BMP280;49036;42.782;23.108;2023-08-06T05:06:37;92854.84;;;16.99
62930;BMP280;49036;42.782;23.108;2023-08-06T05:09:06;92851.94;;;16.95
62930;BMP280;49036;42.782;23.108;2023-08-06T05:11:32;92852.13;;;17.04
62930;BMP280;49036;42.782;23.108;2023-08-06T05:13:57;92845.97;;;17.09
62930;BMP280;49036;42.782;23.108;2023-08-06T05:17:51;92850.38;;;17.18
62930;BMP280;49036;42.782;23.108;2023-08-06T05:20:16;92851.91;;;17.23
62930;BMP280;49036;42.782;23.108;2023-08-06T05:22:43;92855.09;;;17.10
62930;BMP280;49036;42.782;23.108;2023-08-06T05:25:09;92854.56;;;17.17
62930;BMP280;49036;42.782;23.108;2023-08-06T05:27:35;92858.50;;;17.34
62930;BMP280;49036;42.782;23.108;2023-08-06T05:30:00;92843.09;;;17.65
62930;BMP280;49036;42.782;23.108;2023-08-06T05:32:25;92836.94;;;18.06
62930;BMP280;49036;42.782;23.108;2023-08-06T05:34:51;92837.22;;;18.57
62930;BMP280;49036;42.782;23.108;2023-08-06T05:37:16;92844.13;;;18.90
62930;BMP280;49036;42.782;23.108;2023-08-06T05:39:42;92837.63;;;19.21
62930;BMP280;49036;42.782;23.108;2023-08-06T05:42:07;92818.66;;;19.70
62930;BMP280;49036;42.782;23.108;2023-08-06T05:44:33;92834.63;;;19.55
62930;BMP280;49036;42.782;23.108;2023-08-06T05:58:39;92861.63;;;18.12
62930;BMP280;49036;42.782;23.108;2023-08-06T06:01:05;92852.03;;;17.89
62930;BMP280;49036;42.782;23.108;2023-08-06T06:03:30;92859.97;;;17.67
62930;BMP280;49036;42.782;23.108;2023-08-06T06:07:32;92875.28;;;17.62
62930;BMP280;49036;42.782;23.108;2023-08-06T06:09:57;92879.72;;;17.73
62930;BMP280;49036;42.782;23.108;2023-08-06T06:12:23;92881.91;;;17.77
62930;BMP280;49036;42.782;23.108;2023-08-06T06:14:51;92885.91;;;17.97
62930;BMP280;49036;42.782;23.108;2023-08-06T06:17:16;92891.22;;;18.17
62930;BMP280;49036;42.782;23.108;2023-08-06T06:19:41;92901.78;;;18.19
62930;BMP280;49036;42.782;23.108;2023-08-06T06:22:07;92900.00;;;18.35
62930;BMP280;49036;42.782;23.108;2023-08-06T06:24:33;92906.56;;;18.84
62930;BMP280;49036;42.782;23.108;2023-08-06T06:26:58;92901.41;;;19.10
62930;BMP280;49036;42.782;23.108;2023-08-06T06:29:24;92900.34;;;19.30
62930;BMP280;49036;42.782;23.108;2023-08-06T06:31:49;92908.00;;;19.69
62930;BMP280;49036;42.782;23.108;2023-08-06T06:34:15;92905.41;;;19.81
62930;BMP280;49036;42.782;23.108;2023-08-06T06:36:40;92908.34;;;19.92
62930;BMP280;49036;42.782;23.108;2023-08-06T06:39:37;92909.66;;;19.86
62930;BMP280;49036;42.782;23.108;2023-08-06T06:42:03;92907.72;;;19.97
62930;BMP280;49036;42.782;23.108;2023-08-06T06:44:28;92916.25;;;20.01
62930;BMP280;49036;42.782;23.108;2023-08-06T06:46:54;92913.06;;;19.77
62930;BMP280;49036;42.782;23.108;2023-08-06T06:49:19;92901.56;;;19.61
62930;BMP280;49036;42.782;23.108;2023-08-06T06:51:45;92911.84;;;19.44
62930;BMP280;49036;42.782;23.108;2023-08-06T06:54:11;92920.91;;;19.40
62930;BMP280;49036;42.782;23.108;2023-08-06T06:56:37;92930.59;;;19.29
62930;BMP280;49036;42.782;23.108;2023-08-06T06:59:56;92923.31;;;19.16
62930;BMP280;49036;42.782;23.108;2023-08-06T07:02:21;92923.50;;;19.26
62930;BMP280;49036;42.782;23.108;2023-08-06T07:04:47;92929.88;;;19.29
62930;BMP280;49036;42.782;23.108;2023-08-06T07:07:12;92930.84;;;19.43
62930;BMP280;49036;42.782;23.108;2023-08-06T07:09:38;92929.75;;;19.63
62930;BMP280;49036;42.782;23.108;2023-08-06T07:12:04;92938.53;;;19.85
62930;BMP280;49036;42.782;23.108;2023-08-06T07:14:29;92937.81;;;19.84
62930;BMP280;49036;42.782;23.108;2023-08-06T07:16:55;92938.22;;;19.65
62930;BMP280;49036;42.782;23.108;2023-08-06T07:19:20;92944.72;;;19.77
62930;BMP280;49036;42.782;23.108;2023-08-06T07:21:46;92955.91;;;19.73
62930;BMP280;49036;42.782;23.108;2023-08-06T07:24:12;92949.84;;;19.89
62930;BMP280;49036;42.782;23.108;2023-08-06T07:27:22;92962.19;;;20.16
62930;BMP280;49036;42.782;23.108;2023-08-06T07:29:47;92958.94;;;20.36
62930;BMP280;49036;42.782;23.108;2023-08-06T07:32:13;92963.50;;;20.61
62930;BMP280;49036;42.782;23.108;2023-08-06T07:34:39;92959.25;;;20.60
62930;BMP280;49036;42.782;23.108;2023-08-06T07:37:04;92964.06;;;20.49
62930;BMP280;49036;42.782;23.108;2023-08-06T07:39:31;92955.66;;;20.55
62930;BMP280;49036;42.782;23.108;2023-08-06T07:41:56;92962.88;;;20.69
62930;BMP280;49036;42.782;23.108;2023-08-06T07:44:22;92958.09;;;20.81
62930;BMP280;49036;42.782;23.108;2023-08-06T07:46:47;92954.16;;;21.09
62930;BMP280;49036;42.782;23.108;2023-08-06T07:49:13;92960.78;;;21.42
62930;BMP280;49036;42.782;23.108;2023-08-06T07:51:38;92961.84;;;21.85
62930;BMP280;49036;42.782;23.108;2023-08-06T07:54:05;92960.63;;;22.14
62930;BMP280;49036;42.782;23.108;2023-08-06T07:56:31;92967.31;;;21.58
62930;BMP280;49036;42.782;23.108;2023-08-06T07:58:56;92969.63;;;21.04
62930;BMP280;49036;42.782;23.108;2023-08-06T08:01:22;92970.84;;;20.88
62930;BMP280;49036;42.782;23.108;2023-08-06T08:03:47;92963.16;;;20.93
62930;BMP280;49036;42.782;23.108;2023-08-06T08:06:13;92961.31;;;21.18
62930;BMP280;49036;42.782;23.108;2023-08-06T08:08:38;92960.34;;;21.69
62930;BMP280;49036;42.782;23.108;2023-08-06T08:11:05;92959.13;;;21.97
62930;BMP280;49036;42.782;23.108;2023-08-06T08:13:30;92951.47;;;22.18
62930;BMP280;49036;42.782;23.108;2023-08-06T08:15:59;92955.66;;;22.11
62930;BMP280;49036;42.782;23.108;2023-08-06T08:18:25;92949.19;;;21.92
62930;BMP280;49036;42.782;23.108;2023-08-06T08:20:51;92951.22;;;21.77
62930;BMP280;49036;42.782;23.108;2023-08-06T08:23:17;92943.97;;;21.52
62930;BMP280;49036;42.782;23.108;2023-08-06T08:25:42;92937.66;;;21.59
62930;BMP280;49036;42.782;23.108;2023-08-06T08:28:08;92945.38;;;21.49
62930;BMP280;49036;42.782;23.108;2023-08-06T08:30:33;92948.09;;;21.41
62930;BMP280;49036;42.782;23.108;2023-08-06T08:32:59;92942.56;;;21.49
62930;BMP280;49036;42.782;23.108;2023-08-06T08:35:25;92939.81;;;21.63
62930;BMP280;49036;42.782;23.108;2023-08-06T08:37:50;92944.06;;;21.62
62930;BMP280;49036;42.782;23.108;2023-08-06T08:40:46;92941.22;;;21.62
62930;BMP280;49036;42.782;23.108;2023-08-06T08:43:15;92941.50;;;22.02
62930;BMP280;49036;42.782;23.108;2023-08-06T08:45:42;92945.50;;;21.69
62930;BMP280;49036;42.782;23.108;2023-08-06T08:48:11;92947.59;;;21.66
62930;BMP280;49036;42.782;23.108;2023-08-06T08:50:38;92942.84;;;21.89
62930;BMP280;49036;42.782;23.108;2023-08-06T08:53:05;92946.31;;;21.84
62930;BMP280;49036;42.782;23.108;2023-08-06T08:55:31;92940.81;;;22.02
62930;BMP280;49036;42.782;23.108;2023-08-06T08:57:57;92931.63;;;22.05
62930;BMP280;49036;42.782;23.108;2023-08-06T09:00:22;92938.78;;;22.21
62930;BMP280;49036;42.782;23.108;2023-08-06T09:02:49;92930.31;;;22.21
62930;BMP280;49036;42.782;23.108;2023-08-06T09:05:16;92924.72;;;22.33
62930;BMP280;49036;42.782;23.108;2023-08-06T09:07:46;92927.66;;;22.61
62930;BMP280;49036;42.782;23.108;2023-08-06T09:12:22;92925.50;;;22.62
62930;BMP280;49036;42.782;23.108;2023-08-06T09:14:47;92923.47;;;22.87
62930;BMP280;49036;42.782;23.108;2023-08-06T09:17:13;92924.94;;;23.04
62930;BMP280;49036;42.782;23.108;2023-08-06T09:19:42;92934.13;;;23.12
62930;BMP280;49036;42.782;23.108;2023-08-06T09:22:12;92919.97;;;23.20
62930;BMP280;49036;42.782;23.108;2023-08-06T09:24:40;92912.19;;;23.64
62930;BMP280;49036;42.782;23.108;2023-08-06T09:27:11;92906.47;;;24.02
62930;BMP280;49036;42.782;23.108;2023-08-06T09:29:43;92916.34;;;24.15
62930;BMP280;49036;42.782;23.108;2023-08-06T09:32:08;92909.97;;;24.09
62930;BMP280;49036;42.782;23.108;2023-08-06T09:34:34;92911.91;;;24.63
62930;BMP280;49036;42.782;23.108;2023-08-06T09:37:00;92908.06;;;25.09
62930;BMP280;49036;42.782;23.108;2023-08-06T09:39:32;92904.47;;;25.16
62930;BMP280;49036;42.782;23.108;2023-08-06T09:42:24;92901.97;;;25.60
62930;BMP280;49036;42.782;23.108;2023-08-06T09:44:50;92909.22;;;25.38
62930;BMP280;49036;42.782;23.108;2023-08-06T09:47:15;92902.31;;;25.17
62930;BMP280;49036;42.782;23.108;2023-08-06T09:51:03;92895.28;;;25.10
62930;BMP280;49036;42.782;23.108;2023-08-06T09:53:29;92906.53;;;25.26
62930;BMP280;49036;42.782;23.108;2023-08-06T09:55:56;92903.63;;;25.30
62930;BMP280;49036;42.782;23.108;2023-08-06T09:58:23;92909.50;;;25.06
62930;BMP280;49036;42.782;23.108;2023-08-06T10:00:49;92899.00;;;24.82
62930;BMP280;49036;42.782;23.108;2023-08-06T10:03:15;92903.81;;;25.06
62930;BMP280;49036;42.782;23.108;2023-08-06T10:05:44;92899.72;;;24.81
62930;BMP280;49036;42.782;23.108;2023-08-06T10:08:09;92911.91;;;24.63
62930;BMP280;49036;42.782;23.108;2023-08-06T10:10:35;92908.41;;;24.50
62930;BMP280;49036;42.782;23.108;2023-08-06T10:13:03;92906.94;;;24.55
62930;BMP280;49036;42.782;23.108;2023-08-06T10:15:31;92905.69;;;24.26
62930;BMP280;49036;42.782;23.108;2023-08-06T10:17:58;92907.91;;;23.95
62930;BMP280;49036;42.782;23.108;2023-08-06T10:20:24;92908.66;;;23.71
62930;BMP280;49036;42.782;23.108;2023-08-06T10:23:02;92911.47;;;23.81
62930;BMP280;49036;42.782;23.108;2023-08-06T10:25:32;92907.13;;;24.19
62930;BMP280;49036;42.782;23.108;2023-08-06T10:28:09;92920.00;;;23.67
62930;BMP280;49036;42.782;23.108;2023-08-06T10:32:05;92923.53;;;23.15
62930;BMP280;49036;42.782;23.108;2023-08-06T10:34:54;92928.47;;;23.12
62930;BMP280;49036;42.782;23.108;2023-08-06T10:37:21;92925.66;;;23.08
62930;BMP280;49036;42.782;23.108;2023-08-06T10:39:51;92929.88;;;23.13
62930;BMP280;49036;42.782;23.108;2023-08-06T10:47:38;92921.41;;;23.64
62930;BMP280;49036;42.782;23.108;2023-08-06T10:50:06;92940.47;;;23.90
62930;BMP280;49036;42.782;23.108;2023-08-06T10:52:33;92936.97;;;23.71
62930;BMP280;49036;42.782;23.108;2023-08-06T10:54:59;92937.69;;;23.80
62930;BMP280;49036;42.782;23.108;2023-08-06T10:57:24;92934.16;;;23.85
62930;BMP280;49036;42.782;23.108;2023-08-06T10:59:50;92941.22;;;23.70
62930;BMP280;49036;42.782;23.108;2023-08-06T11:02:16;92931.31;;;25.32
62930;BMP280;49036;42.782;23.108;2023-08-06T11:04:42;92929.97;;;26.02
62930;BMP280;49036;42.782;23.108;2023-08-06T11:07:07;92935.47;;;26.75
62930;BMP280;49036;42.782;23.108;2023-08-06T11:09:33;92943.47;;;27.59
62930;BMP280;49036;42.782;23.108;2023-08-06T11:11:58;92941.16;;;28.07
62930;BMP280;49036;42.782;23.108;2023-08-06T11:14:24;92938.34;;;28.41
62930;BMP280;49036;42.782;23.108;2023-08-06T11:16:50;92946.19;;;27.22
62930;BMP280;49036;42.782;23.108;2023-08-06T11:19:16;92936.47;;;27.05
62930;BMP280;49036;42.782;23.108;2023-08-06T11:21:42;92939.31;;;25.92
62930;BMP280;49036;42.782;23.108;2023-08-06T11:24:12;92934.25;;;26.01
62930;BMP280;49036;42.782;23.108;2023-08-06T11:26:37;92938.69;;;27.00
62930;BMP280;49036;42.782;23.108;2023-08-06T11:29:05;92929.38;;;27.04
62930;BMP280;49036;42.782;23.108;2023-08-06T11:31:31;92931.13;;;25.58
62930;BMP280;49036;42.782;23.108;2023-08-06T11:33:56;92943.69;;;25.81
62930;BMP280;49036;42.782;23.108;2023-08-06T11:36:32;92923.66;;;25.93
62930;BMP280;49036;42.782;23.108;2023-08-06T11:39:02;92911.16;;;24.70
62930;BMP280;49036;42.782;23.108;2023-08-06T11:41:28;92925.56;;;24.16
62930;BMP280;49036;42.782;23.108;2023-08-06T11:43:54;92921.91;;;24.48
62930;BMP280;49036;42.782;23.108;2023-08-06T11:46:20;92915.47;;;25.59
62930;BMP280;49036;42.782;23.108;2023-08-06T11:48:55;92917.50;;;27.77
62930;BMP280;49036;42.782;23.108;2023-08-06T11:51:25;92912.34;;;28.23
62930;BMP280;49036;42.782;23.108;2023-08-06T11:53:58;92906.88;;;28.76
62930;BMP280;49036;42.782;23.108;2023-08-06T11:56:27;92922.78;;;27.15
62930;BMP280;49036;42.782;23.108;2023-08-06T11:58:54;92913.00;;;28.91
62930;BMP280;49036;42.782;23.108;2023-08-06T12:01:20;92913.84;;;29.99
62930;BMP280;49036;42.782;23.108;2023-08-06T12:03:45;92915.25;;;29.17
62930;BMP280;49036;42.782;23.108;2023-08-06T12:06:11;92916.69;;;27.40
62930;BMP280;49036;42.782;23.108;2023-08-06T12:08:36;92925.69;;;26.60
62930;BMP280;49036;42.782;23.108;2023-08-06T12:11:03;92915.59;;;26.18
62930;BMP280;49036;42.782;23.108;2023-08-06T12:13:29;92924.25;;;26.04
62930;BMP280;49036;42.782;23.108;2023-08-06T12:15:54;92920.31;;;25.71
62930;BMP280;49036;42.782;23.108;2023-08-06T12:18:22;92908.19;;;25.78
62930;BMP280;49036;42.782;23.108;2023-08-06T12:20:48;92901.28;;;28.39
62930;BMP280;49036;42.782;23.108;2023-08-06T12:23:13;92910.41;;;29.67
62930;BMP280;49036;42.782;23.108;2023-08-06T12:25:41;92914.13;;;28.40
62930;BMP280;49036;42.782;23.108;2023-08-06T12:28:06;92922.84;;;27.11
62930;BMP280;49036;42.782;23.108;2023-08-06T12:30:33;92923.28;;;26.83
62930;BMP280;49036;42.782;23.108;2023-08-06T12:33:43;92912.91;;;26.04
62930;BMP280;49036;42.782;23.108;2023-08-06T12:36:08;92914.44;;;25.91
62930;BMP280;49036;42.782;23.108;2023-08-06T12:38:34;92912.47;;;25.77
62930;BMP280;49036;42.782;23.108;2023-08-06T12:40:59;92901.50;;;26.04
62930;BMP280;49036;42.782;23.108;2023-08-06T12:43:25;92904.81;;;26.25
62930;BMP280;49036;42.782;23.108;2023-08-06T12:45:50;92898.72;;;28.25
62930;BMP280;49036;42.782;23.108;2023-08-06T12:48:16;92894.03;;;28.47
62930;BMP280;49036;42.782;23.108;2023-08-06T12:50:42;92896.81;;;29.39
62930;BMP280;49036;42.782;23.108;2023-08-06T12:53:07;92905.06;;;28.94
62930;BMP280;49036;42.782;23.108;2023-08-06T12:55:34;92914.03;;;27.30
62930;BMP280;49036;42.782;23.108;2023-08-06T12:57:59;92898.69;;;26.04
62930;BMP280;49036;42.782;23.108;2023-08-06T13:00:26;92910.47;;;25.62
62930;BMP280;49036;42.782;23.108;2023-08-06T13:02:51;92900.34;;;25.77
62930;BMP280;49036;42.782;23.108;2023-08-06T13:05:17;92911.63;;;25.89
62930;BMP280;49036;42.782;23.108;2023-08-06T13:07:43;92897.66;;;25.67
62930;BMP280;49036;42.782;23.108;2023-08-06T13:10:08;92911.38;;;25.40
62930;BMP280;49036;42.782;23.108;2023-08-06T13:12:34;92904.91;;;25.49
62930;BMP280;49036;42.782;23.108;2023-08-06T13:14:59;92907.38;;;27.84
62930;BMP280;49036;42.782;23.108;2023-08-06T13:17:25;92891.97;;;30.64
62930;BMP280;49036;42.782;23.108;2023-08-06T13:19:51;92911.38;;;32.10
62930;BMP280;49036;42.782;23.108;2023-08-06T13:22:16;92915.56;;;30.39
62930;BMP280;49036;42.782;23.108;2023-08-06T13:24:42;92916.97;;;28.38
62930;BMP280;49036;42.782;23.108;2023-08-06T13:27:07;92922.06;;;27.17
62930;BMP280;49036;42.782;23.108;2023-08-06T13:29:34;92917.03;;;26.70
62930;BMP280;49036;42.782;23.108;2023-08-06T13:32:00;92898.38;;;28.41
62930;BMP280;49036;42.782;23.108;2023-08-06T13:34:26;92907.53;;;30.69
62930;BMP280;49036;42.782;23.108;2023-08-06T13:36:51;92910.25;;;32.22
62930;BMP280;49036;42.782;23.108;2023-08-06T13:39:17;92909.78;;;32.15
62930;BMP280;49036;42.782;23.108;2023-08-06T13:41:42;92915.94;;;32.42
62930;BMP280;49036;42.782;23.108;2023-08-06T13:44:08;92910.94;;;31.83
62930;BMP280;49036;42.782;23.108;2023-08-06T13:46:34;92911.63;;;30.98
62930;BMP280;49036;42.782;23.108;2023-08-06T13:49:00;92919.00;;;31.58
62930;BMP280;49036;42.782;23.108;2023-08-06T13:51:25;92908.34;;;33.08
62930;BMP280;49036;42.782;23.108;2023-08-06T13:53:51;92906.69;;;32.40
62930;BMP280;49036;42.782;23.108;2023-08-06T13:56:17;92902.47;;;32.93
62930;BMP280;49036;42.782;23.108;2023-08-06T13:58:43;92899.69;;;33.26
62930;BMP280;49036;42.782;23.108;2023-08-06T14:01:10;92891.88;;;31.11
62930;BMP280;49036;42.782;23.108;2023-08-06T14:03:36;92893.47;;;31.06
62930;BMP280;49036;42.782;23.108;2023-08-06T14:06:01;92894.91;;;29.85
62930;BMP280;49036;42.782;23.108;2023-08-06T14:08:27;92908.44;;;28.03
62930;BMP280;49036;42.782;23.108;2023-08-06T14:10:53;92895.59;;;27.66
62930;BMP280;49036;42.782;23.108;2023-08-06T14:13:19;92894.25;;;28.67
62930;BMP280;49036;42.782;23.108;2023-08-06T14:15:45;92899.41;;;28.28
62930;BMP280;49036;42.782;23.108;2023-08-06T14:18:13;92904.03;;;28.11
62930;BMP280;49036;42.782;23.108;2023-08-06T14:20:39;92907.59;;;26.84
62930;BMP280;49036;42.782;23.108;2023-08-06T14:23:05;92919.94;;;26.09
62930;BMP280;49036;42.782;23.108;2023-08-06T14:25:30;92919.16;;;25.43
62930;BMP280;49036;42.782;23.108;2023-08-06T14:27:57;92912.47;;;25.75
62930;BMP280;49036;42.782;23.108;2023-08-06T14:30:22;92915.41;;;27.33